Terminal Aerodrome Forecast
Issued by NWS

Home | Current Version | Previous Version | Text Only | Print | Product List | Glossary On
Versions: 1 2 3 4 5 6 7 8 9 10 11 12 13 14 15
000
FTUS42 KMLB 252300
TAFSUA
TAF
KSUA 252331Z 2600/2624 36010G16KT P6SM SCT025
     FM260200 35009KT P6SM VCSH SCT030
     FM261400 36006KT P6SM VCSH SCT030
     FM261600 03008KT P6SM VCSH SCT030=

USA.gov is the U.S. government's official web portal to all federal, state and local government web resources and services.